Time,TemperatureF,DewpointF,PressureIn,WindDirection,WindDirectionDegrees,WindSpeedMPH,WindSpeedGustMPH,Humidity,HourlyPrecipIn,Conditions,Clouds,dailyrainin,SolarRadiationWatts/m^2,SoftwareType,DateUTC
2013-01-21 00:02:00,39.4,25.0,30.07,NE,37,1.0,8.0,56,0.00,,,0.00,0.0,meteohub,2013-01-21 05:02:00,
2013-01-21 00:03:00,39.4,25.0,30.07,NE,37,2.0,8.0,56,0.00,,,0.00,0.0,meteohub,2013-01-21 05:03:00,
2013-01-21 00:04:00,39.4,25.0,30.07,North,5,2.0,8.0,56,0.00,,,0.00,0.0,meteohub,2013-01-21 05:04:00,
2013-01-21 00:09:00,39.6,24.8,30.07,NNW,331,0.0,8.0,55,0.00,,,0.00,0.0,meteohub,2013-01-21 05:09:00,
2013-01-21 00:14:00,39.4,24.1,30.07,North,355,0.0,6.0,54,0.00,,,0.00,0.0,meteohub,2013-01-21 05:14:00,
2013-01-21 00:19:00,39.2,23.9,30.07,North,355,2.0,6.0,54,0.00,,,0.00,0.0,meteohub,2013-01-21 05:19:00,
2013-01-21 00:24:00,39.4,23.2,30.07,North,5,2.0,5.0,52,0.00,,,0.00,0.0,meteohub,2013-01-21 05:24:00,
2013-01-21 00:29:00,39.6,22.5,30.07,North,355,2.0,4.0,50,0.00,,,0.00,0.0,meteohub,2013-01-21 05:29:00,
2013-01-21 00:34:00,39.9,20.8,30.06,North,0,1.0,4.0,46,0.00,,,0.00,0.0,meteohub,2013-01-21 05:34:00,
2013-01-21 00:39:00,39.9,21.4,30.06,NNE,16,2.0,4.0,47,0.00,,,0.00,0.0,meteohub,2013-01-21 05:39:00,
2013-01-21 00:44:00,39.7,21.2,30.06,NNE,16,2.0,4.0,47,0.00,,,0.00,0.0,meteohub,2013-01-21 05:44:00,
2013-01-21 00:49:00,39.6,19.9,30.06,NNE,16,0.0,3.0,45,0.00,,,0.00,0.0,meteohub,2013-01-21 05:49:00,
2013-01-21 00:54:00,39.7,20.7,30.06,NNE,16,0.0,3.0,46,0.00,,,0.00,0.0,meteohub,2013-01-21 05:54:00,
2013-01-21 01:00:00,38.5,22.5,30.06,NNE,16,0.0,2.0,52,0.00,,,0.00,0.0,meteohub,2013-01-21 06:00:00,
2013-01-21 01:05:00,37.8,22.1,30.06,NNE,16,0.0,2.0,53,0.00,,,0.00,0.0,meteohub,2013-01-21 06:05:00,
2013-01-21 01:10:00,38.3,21.7,30.06,North,0,0.0,2.0,51,0.00,,,0.00,0.0,meteohub,2013-01-21 06:10:00,
2013-01-21 01:15:00,38.7,22.1,30.06,North,0,0.0,2.0,51,0.00,,,0.00,0.0,meteohub,2013-01-21 06:15:00,
2013-01-21 01:20:00,38.8,22.3,30.06,North,0,0.0,2.0,51,0.00,,,0.00,0.0,meteohub,2013-01-21 06:20:00,
2013-01-21 01:25:00,38.8,19.8,30.06,North,0,0.0,1.0,46,0.00,,,0.00,0.0,meteohub,2013-01-21 06:25:00,
2013-01-21 01:30:00,39.0,20.5,30.06,North,0,0.0,1.0,47,0.00,,,0.00,0.0,meteohub,2013-01-21 06:30:00,
2013-01-21 01:35:00,39.6,18.3,30.06,North,0,2.0,2.0,42,0.00,,,0.00,0.0,meteohub,2013-01-21 06:35:00,
2013-01-21 01:40:00,40.1,20.5,30.06,North,0,1.0,3.0,45,0.00,,,0.00,0.0,meteohub,2013-01-21 06:40:00,
2013-01-21 01:45:00,40.5,19.2,30.06,North,351,3.0,3.0,42,0.00,,,0.00,0.0,meteohub,2013-01-21 06:45:00,
2013-01-21 01:50:00,40.8,20.1,30.06,NNE,22,2.0,4.0,43,0.00,,,0.00,0.0,meteohub,2013-01-21 06:50:00,
2013-01-21 01:55:00,40.8,19.6,30.06,North,10,1.0,4.0,42,0.00,,,0.00,0.0,meteohub,2013-01-21 06:55:00,
2013-01-21 02:00:00,40.3,18.0,30.06,North,10,1.0,4.0,40,0.00,,,0.00,0.0,meteohub,2013-01-21 07:00:00,
2013-01-21 02:05:00,39.9,18.1,30.06,North,10,0.0,3.0,41,0.00,,,0.00,0.0,meteohub,2013-01-21 07:05:00,
2013-01-21 02:10:00,39.7,18.5,30.06,North,10,0.0,2.0,42,0.00,,,0.00,0.0,meteohub,2013-01-21 07:10:00,
2013-01-21 02:15:00,39.4,18.1,30.06,North,10,0.0,2.0,42,0.00,,,0.00,0.0,meteohub,2013-01-21 07:15:00,
2013-01-21 02:20:00,39.4,18.7,30.06,North,10,0.0,0.0,43,0.00,,,0.00,0.0,meteohub,2013-01-21 07:20:00,
2013-01-21 02:25:00,39.2,19.0,30.06,NNE,17,1.0,0.0,44,0.00,,,0.00,0.0,meteohub,2013-01-21 07:25:00,
2013-01-21 02:31:00,39.4,19.8,30.06,North,5,2.0,3.0,45,0.00,,,0.00,0.0,meteohub,2013-01-21 07:31:00,
2013-01-21 02:36:00,39.4,20.3,30.05,North,355,1.0,4.0,46,0.00,,,0.00,0.0,meteohub,2013-01-21 07:36:00,
2013-01-21 02:41:00,39.0,21.6,30.05,North,349,1.0,4.0,49,0.00,,,0.00,0.0,meteohub,2013-01-21 07:41:00,
2013-01-21 02:46:00,38.8,21.7,30.05,NNW,336,1.0,5.0,50,0.00,,,0.00,0.0,meteohub,2013-01-21 07:46:00,
2013-01-21 02:51:00,38.1,22.5,30.05,North,5,2.0,5.0,53,0.00,,,0.00,0.0,meteohub,2013-01-21 07:51:00,
2013-01-21 02:56:00,38.1,23.0,30.05,North,355,2.0,4.0,54,0.00,,,0.00,0.0,meteohub,2013-01-21 07:56:00,
2013-01-21 03:01:00,37.8,23.5,30.06,NNE,27,1.0,4.0,56,0.00,,,0.00,0.0,meteohub,2013-01-21 08:01:00,
2013-01-21 03:06:00,37.8,23.9,30.05,NNW,344,0.0,4.0,57,0.00,,,0.00,0.0,meteohub,2013-01-21 08:06:00,
2013-01-21 03:12:00,37.6,24.6,30.05,NW,310,1.0,3.0,59,0.00,,,0.00,0.0,meteohub,2013-01-21 08:12:00,
2013-01-21 03:17:00,37.2,24.6,30.05,North,10,0.0,3.0,60,0.00,,,0.00,0.0,meteohub,2013-01-21 08:17:00,
2013-01-21 03:22:00,37.6,24.6,30.05,North,5,0.0,3.0,59,0.00,,,0.00,0.0,meteohub,2013-01-21 08:22:00,
2013-01-21 03:27:00,37.4,24.4,30.05,North,349,1.0,6.0,59,0.00,,,0.00,0.0,meteohub,2013-01-21 08:27:00,
2013-01-21 03:32:00,37.4,24.4,30.05,NNE,20,0.0,6.0,59,0.00,,,0.00,0.0,meteohub,2013-01-21 08:32:00,
2013-01-21 03:37:00,37.4,24.8,30.05,NNE,31,2.0,6.0,60,0.00,,,0.00,0.0,meteohub,2013-01-21 08:37:00,
2013-01-21 03:42:00,37.6,25.0,30.05,NNE,23,2.0,6.0,60,0.00,,,0.00,0.0,meteohub,2013-01-21 08:42:00,
2013-01-21 03:47:00,37.2,25.0,30.04,North,5,1.0,6.0,61,0.00,,,0.00,0.0,meteohub,2013-01-21 08:47:00,
2013-01-21 03:52:00,37.2,25.0,30.04,NNE,22,1.0,6.0,61,0.00,,,0.00,0.0,meteohub,2013-01-21 08:52:00,
2013-01-21 03:57:00,37.2,25.3,30.04,NNE,30,3.0,5.0,62,0.00,,,0.00,0.0,meteohub,2013-01-21 08:57:00,
2013-01-21 04:02:00,37.0,24.8,30.04,NNW,337,0.0,5.0,61,0.00,,,0.00,0.0,meteohub,2013-01-21 09:02:00,
2013-01-21 04:07:00,37.2,24.6,30.04,NNE,33,1.0,5.0,60,0.00,,,0.00,0.0,meteohub,2013-01-21 09:07:00,
2013-01-21 04:12:00,37.2,24.6,30.03,NE,40,3.0,4.0,60,0.00,,,0.00,0.0,meteohub,2013-01-21 09:12:00,
2013-01-21 04:17:00,37.0,24.4,30.03,North,0,0.0,6.0,60,0.00,,,0.00,0.0,meteohub,2013-01-21 09:17:00,
2013-01-21 04:22:00,36.9,24.6,30.03,North,355,2.0,6.0,61,0.00,,,0.00,0.0,meteohub,2013-01-21 09:22:00,
2013-01-21 04:27:00,36.9,24.3,30.03,NNW,343,1.0,6.0,60,0.00,,,0.00,0.0,meteohub,2013-01-21 09:27:00,
2013-01-21 04:33:00,36.9,23.9,30.03,North,0,1.0,3.0,59,0.00,,,0.00,0.0,meteohub,2013-01-21 09:33:00,
2013-01-21 04:38:00,36.9,24.6,30.03,NNW,331,3.0,3.0,61,0.00,,,0.00,0.0,meteohub,2013-01-21 09:38:00,
2013-01-21 04:43:00,37.0,23.7,30.02,North,5,3.0,4.0,58,0.00,,,0.00,0.0,meteohub,2013-01-21 09:43:00,
2013-01-21 04:48:00,37.4,23.2,30.02,North,5,2.0,4.0,56,0.00,,,0.00,0.0,meteohub,2013-01-21 09:48:00,
2013-01-21 04:53:00,37.6,22.5,30.02,North,355,0.0,4.0,54,0.00,,,0.00,0.0,meteohub,2013-01-21 09:53:00,
2013-01-21 04:58:00,37.8,21.7,30.02,North,355,2.0,4.0,52,0.00,,,0.00,0.0,meteohub,2013-01-21 09:58:00,
2013-01-21 05:03:00,37.6,21.9,30.01,NNE,16,2.0,3.0,53,0.00,,,0.00,0.0,meteohub,2013-01-21 10:03:00,
2013-01-21 05:08:00,37.4,22.6,30.01,NE,38,1.0,4.0,55,0.00,,,0.00,0.0,meteohub,2013-01-21 10:08:00,
2013-01-21 05:13:00,37.4,22.6,30.01,NE,40,2.0,4.0,55,0.00,,,0.00,0.0,meteohub,2013-01-21 10:13:00,
2013-01-21 05:18:00,37.0,22.5,30.01,NNE,22,3.0,4.0,55,0.00,,,0.00,0.0,meteohub,2013-01-21 10:18:00,
2013-01-21 05:23:00,37.4,23.2,30.01,NNE,32,1.0,6.0,56,0.00,,,0.00,0.0,meteohub,2013-01-21 10:23:00,
2013-01-21 05:28:00,37.0,23.7,30.01,NNE,31,2.0,7.0,58,0.00,,,0.00,0.0,meteohub,2013-01-21 10:28:00,
2013-01-21 05:33:00,37.0,23.7,30.02,NNE,13,3.0,7.0,58,0.00,,,0.00,0.0,meteohub,2013-01-21 10:33:00,
2013-01-21 05:38:00,37.6,21.9,30.02,NE,44,0.0,7.0,53,0.00,,,0.00,0.0,meteohub,2013-01-21 10:38:00,
2013-01-21 05:43:00,37.4,23.2,30.02,NE,56,1.0,4.0,56,0.00,,,0.00,0.0,meteohub,2013-01-21 10:43:00,
2013-01-21 05:48:00,36.5,22.6,30.01,NE,55,0.0,4.0,57,0.00,,,0.00,0.0,meteohub,2013-01-21 10:48:00,
2013-01-21 05:53:00,36.1,22.8,30.02,NE,34,0.0,4.0,58,0.00,,,0.00,0.0,meteohub,2013-01-21 10:53:00,
2013-01-21 05:58:00,36.3,23.0,30.02,NE,34,0.0,3.0,58,0.00,,,0.00,0.0,meteohub,2013-01-21 10:58:00,
2013-01-21 06:03:00,36.3,23.4,30.02,NE,35,3.0,3.0,59,0.00,,,0.00,0.0,meteohub,2013-01-21 11:03:00,
2013-01-21 06:08:00,36.1,23.5,30.02,NE,42,3.0,4.0,60,0.00,,,0.00,0.0,meteohub,2013-01-21 11:08:00,
2013-01-21 06:14:00,36.1,22.8,30.02,NE,38,2.0,4.0,58,0.00,,,0.00,0.0,meteohub,2013-01-21 11:14:00,
2013-01-21 06:19:00,36.1,23.5,30.02,NE,38,1.0,4.0,60,0.00,,,0.00,0.0,meteohub,2013-01-21 11:19:00,
2013-01-21 06:24:00,36.7,22.5,30.02,NE,38,2.0,4.0,56,0.00,,,0.00,0.0,meteohub,2013-01-21 11:24:00,
2013-01-21 06:29:00,36.9,22.6,30.02,NE,38,0.0,3.0,56,0.00,,,0.00,0.0,meteohub,2013-01-21 11:29:00,
2013-01-21 06:34:00,36.7,21.6,30.02,ENE,61,2.0,3.0,54,0.00,,,0.00,0.0,meteohub,2013-01-21 11:34:00,
2013-01-21 06:39:00,36.5,22.3,30.02,ENE,59,0.0,3.0,56,0.00,,,0.00,0.0,meteohub,2013-01-21 11:39:00,
2013-01-21 06:44:00,36.3,21.2,30.02,ENE,59,1.0,3.0,54,0.00,,,0.00,0.0,meteohub,2013-01-21 11:44:00,
2013-01-21 06:49:00,36.0,22.6,30.02,NE,44,1.0,3.0,58,0.00,,,0.00,0.0,meteohub,2013-01-21 11:49:00,
2013-01-21 06:54:00,35.8,22.8,30.02,ENE,63,2.0,3.0,59,0.00,,,0.00,0.0,meteohub,2013-01-21 11:54:00,
2013-01-21 06:59:00,36.0,22.3,30.02,NW,306,1.0,4.0,57,0.00,,,0.00,0.0,meteohub,2013-01-21 11:59:00,
2013-01-21 07:04:00,36.1,21.6,30.02,NW,306,1.0,5.0,55,0.00,,,0.00,0.0,meteohub,2013-01-21 12:04:00,
2013-01-21 07:09:00,36.1,22.8,30.02,NNE,26,3.0,5.0,58,0.00,,,0.00,0.0,meteohub,2013-01-21 12:09:00,
2013-01-21 07:15:00,35.6,22.3,30.02,NNE,30,2.0,3.0,58,0.00,,,0.00,0.0,meteohub,2013-01-21 12:15:00,
2013-01-21 07:20:00,35.8,22.8,30.03,NE,40,1.0,4.0,59,0.00,,,0.00,0.0,meteohub,2013-01-21 12:20:00,
2013-01-21 07:25:00,36.0,22.6,30.02,NE,40,2.0,4.0,58,0.00,,,0.00,0.0,meteohub,2013-01-21 12:25:00,
2013-01-21 07:30:00,35.4,22.5,30.02,NE,40,2.0,4.0,59,0.00,,,0.00,0.0,meteohub,2013-01-21 12:30:00,
2013-01-21 07:35:00,35.8,22.8,30.03,NE,40,1.0,3.0,59,0.00,,,0.00,0.0,meteohub,2013-01-21 12:35:00,
2013-01-21 07:40:00,35.4,23.4,30.02,NE,40,1.0,2.0,61,0.00,,,0.00,0.0,meteohub,2013-01-21 12:40:00,
2013-01-21 07:45:00,35.1,23.7,30.02,NE,40,3.0,3.0,63,0.00,,,0.00,5.0,meteohub,2013-01-21 12:45:00,
2013-01-21 07:50:00,35.1,23.7,30.02,NE,40,3.0,4.0,63,0.00,,,0.00,7.0,meteohub,2013-01-21 12:50:00,
2013-01-21 07:55:00,35.2,23.9,30.02,NE,34,3.0,4.0,63,0.00,,,0.00,9.0,meteohub,2013-01-21 12:55:00,
2013-01-21 08:00:00,35.4,24.1,30.03,NE,34,2.0,4.0,63,0.00,,,0.00,12.0,meteohub,2013-01-21 13:00:00,
2013-01-21 08:05:00,35.2,23.5,30.03,NE,34,0.0,4.0,62,0.00,,,0.00,14.0,meteohub,2013-01-21 13:05:00,
2013-01-21 08:11:00,35.8,23.7,30.02,NE,34,2.0,4.0,61,0.00,,,0.00,16.0,meteohub,2013-01-21 13:11:00,
2013-01-21 08:16:00,36.3,23.7,30.03,NE,37,3.0,4.0,60,0.00,,,0.00,18.0,meteohub,2013-01-21 13:16:00,
2013-01-21 08:21:00,36.3,24.1,30.03,ENE,65,0.0,4.0,61,0.00,,,0.00,21.0,meteohub,2013-01-21 13:21:00,
2013-01-21 08:26:00,36.1,24.4,30.03,NE,53,2.0,4.0,62,0.00,,,0.00,23.0,meteohub,2013-01-21 13:26:00,
2013-01-21 08:31:00,36.9,23.5,30.03,NE,53,0.0,4.0,58,0.00,,,0.00,28.0,meteohub,2013-01-21 13:31:00,
2013-01-21 08:36:00,37.2,23.0,30.03,NE,53,0.0,4.0,56,0.00,,,0.00,30.0,meteohub,2013-01-21 13:36:00,
2013-01-21 08:41:00,37.9,24.1,30.03,NE,48,2.0,3.0,57,0.00,,,0.00,32.0,meteohub,2013-01-21 13:41:00,
2013-01-21 08:46:00,38.1,23.9,30.03,East,79,2.0,4.0,56,0.00,,,0.00,77.0,meteohub,2013-01-21 13:46:00,
2013-01-21 08:51:00,38.7,23.9,30.03,East,82,1.0,4.0,55,0.00,,,0.00,91.0,meteohub,2013-01-21 13:51:00,
2013-01-21 08:56:00,39.0,22.5,30.03,East,86,3.0,4.0,51,0.00,,,0.00,77.0,meteohub,2013-01-21 13:56:00,
2013-01-21 09:01:00,39.7,25.0,30.03,ENE,64,2.0,5.0,55,0.00,,,0.00,121.0,meteohub,2013-01-21 14:01:00,
2013-01-21 09:06:00,39.9,23.7,30.03,ENE,64,0.0,5.0,52,0.00,,,0.00,47.0,meteohub,2013-01-21 14:06:00,
2013-01-21 09:11:00,40.3,22.6,30.03,ENE,64,0.0,5.0,49,0.00,,,0.00,70.0,meteohub,2013-01-21 14:11:00,
2013-01-21 09:16:00,41.4,24.1,30.04,ESE,103,0.0,3.0,50,0.00,,,0.00,107.0,meteohub,2013-01-21 14:16:00,
2013-01-21 09:21:00,42.1,23.7,30.04,ESE,107,2.0,3.0,48,0.00,,,0.00,97.0,meteohub,2013-01-21 14:21:00,
2013-01-21 09:26:00,43.0,19.8,30.04,WSW,254,0.0,5.0,39,0.00,,,0.00,176.0,meteohub,2013-01-21 14:26:00,
2013-01-21 09:31:00,44.1,19.4,30.04,South,178,2.0,9.0,37,0.00,,,0.00,141.0,meteohub,2013-01-21 14:31:00,
2013-01-21 09:37:00,44.4,17.8,30.04,ESE,119,2.0,9.0,34,0.00,,,0.00,244.0,meteohub,2013-01-21 14:37:00,
2013-01-21 09:42:00,44.6,18.0,30.04,NE,38,2.0,8.0,34,0.00,,,0.00,171.0,meteohub,2013-01-21 14:42:00,
2013-01-21 09:47:00,44.8,18.9,30.04,NW,317,5.0,10.0,35,0.00,,,0.00,176.0,meteohub,2013-01-21 14:47:00,
2013-01-21 09:52:00,45.1,19.0,30.04,SE,133,2.0,10.0,35,0.00,,,0.00,237.0,meteohub,2013-01-21 14:52:00,
2013-01-21 09:57:00,44.8,18.9,30.03,West,262,2.0,10.0,35,0.00,,,0.00,352.0,meteohub,2013-01-21 14:57:00,
2013-01-21 10:02:00,45.0,19.6,30.03,South,173,2.0,10.0,36,0.00,,,0.00,304.0,meteohub,2013-01-21 15:02:00,
2013-01-21 10:07:00,45.0,20.8,30.03,South,180,4.0,10.0,38,0.00,,,0.00,290.0,meteohub,2013-01-21 15:07:00,
2013-01-21 10:12:00,45.0,21.6,30.03,NW,317,6.0,10.0,39,0.00,,,0.00,237.0,meteohub,2013-01-21 15:12:00,
2013-01-21 10:17:00,45.1,21.7,30.03,NE,56,3.0,12.0,39,0.00,,,0.00,374.0,meteohub,2013-01-21 15:17:00,
2013-01-21 10:22:00,45.3,22.5,30.03,NW,318,0.0,12.0,40,0.00,,,0.00,417.0,meteohub,2013-01-21 15:22:00,
2013-01-21 10:27:00,45.7,23.4,30.03,NNE,15,2.0,12.0,41,0.00,,,0.00,446.0,meteohub,2013-01-21 15:27:00,
2013-01-21 10:32:00,45.9,24.1,30.03,ESE,107,2.0,10.0,42,0.00,,,0.00,455.0,meteohub,2013-01-21 15:32:00,
2013-01-21 10:37:00,46.2,24.4,30.03,WNW,298,3.0,10.0,42,0.00,,,0.00,466.0,meteohub,2013-01-21 15:37:00,
2013-01-21 10:42:00,46.8,24.8,30.03,South,182,2.0,10.0,42,0.00,,,0.00,476.0,meteohub,2013-01-21 15:42:00,
2013-01-21 10:47:00,47.1,25.2,30.03,ESE,121,1.0,11.0,42,0.00,,,0.00,483.0,meteohub,2013-01-21 15:47:00,
2013-01-21 10:52:00,47.3,25.9,30.03,West,271,0.0,11.0,43,0.00,,,0.00,494.0,meteohub,2013-01-21 15:52:00,
2013-01-21 10:57:00,48.0,27.1,30.03,WNW,296,3.0,10.0,44,0.00,,,0.00,503.0,meteohub,2013-01-21 15:57:00,
2013-01-21 11:02:00,47.7,26.2,30.04,West,268,2.0,11.0,43,0.00,,,0.00,510.0,meteohub,2013-01-21 16:02:00,
2013-01-21 11:07:00,47.3,26.4,30.03,West,269,7.0,11.0,44,0.00,,,0.00,520.0,meteohub,2013-01-21 16:07:00,
2013-01-21 11:12:00,47.1,25.2,30.04,West,261,2.0,11.0,42,0.00,,,0.00,527.0,meteohub,2013-01-21 16:12:00,
2013-01-21 11:17:00,47.8,26.4,30.04,East,96,5.0,9.0,43,0.00,,,0.00,534.0,meteohub,2013-01-21 16:17:00,
2013-01-21 11:22:00,47.7,26.8,30.03,ENE,69,4.0,11.0,44,0.00,,,0.00,540.0,meteohub,2013-01-21 16:22:00,
2013-01-21 11:27:00,48.0,27.1,30.03,NNE,30,6.0,11.0,44,0.00,,,0.00,545.0,meteohub,2013-01-21 16:27:00,
2013-01-21 11:32:00,48.4,27.5,30.03,ENE,69,3.0,9.0,44,0.00,,,0.00,552.0,meteohub,2013-01-21 16:32:00,
2013-01-21 11:37:00,48.6,27.7,30.02,ESE,103,3.0,8.0,44,0.00,,,0.00,561.0,meteohub,2013-01-21 16:37:00,
2013-01-21 11:42:00,47.8,27.5,30.03,WSW,252,1.0,9.0,45,0.00,,,0.00,566.0,meteohub,2013-01-21 16:42:00,
2013-01-21 11:47:00,48.4,28.0,30.02,NNE,13,3.0,11.0,45,0.00,,,0.00,571.0,meteohub,2013-01-21 16:47:00,
2013-01-21 11:53:00,47.7,27.9,30.01,North,355,5.0,11.0,46,0.00,,,0.00,577.0,meteohub,2013-01-21 16:53:00,
2013-01-21 11:58:00,47.5,28.8,30.01,South,169,4.0,12.0,48,0.00,,,0.00,584.0,meteohub,2013-01-21 16:58:00,
2013-01-21 12:03:00,48.0,27.7,30.00,East,79,7.0,12.0,45,0.00,,,0.00,587.0,meteohub,2013-01-21 17:03:00,
2013-01-21 12:08:00,48.2,27.3,30.00,West,264,5.0,12.0,44,0.00,,,0.00,591.0,meteohub,2013-01-21 17:08:00,
2013-01-21 12:13:00,48.0,27.7,30.00,East,98,0.0,14.0,45,0.00,,,0.00,596.0,meteohub,2013-01-21 17:13:00,
2013-01-21 12:18:00,48.0,27.7,30.00,WNW,302,5.0,14.0,45,0.00,,,0.00,598.0,meteohub,2013-01-21 17:18:00,
2013-01-21 12:23:00,48.2,28.4,30.00,South,173,2.0,8.0,46,0.00,,,0.00,592.0,meteohub,2013-01-21 17:23:00,
2013-01-21 12:28:00,48.6,28.2,29.99,NW,325,2.0,9.0,45,0.00,,,0.00,599.0,meteohub,2013-01-21 17:28:00,
2013-01-21 12:33:00,49.1,27.5,29.99,ESE,109,2.0,9.0,43,0.00,,,0.00,601.0,meteohub,2013-01-21 17:33:00,
2013-01-21 12:38:00,48.6,28.2,29.99,WNW,301,0.0,9.0,45,0.00,,,0.00,598.0,meteohub,2013-01-21 17:38:00,
2013-01-21 12:43:00,49.3,28.2,29.99,West,259,4.0,11.0,44,0.00,,,0.00,599.0,meteohub,2013-01-21 17:43:00,
2013-01-21 12:48:00,49.6,29.7,29.98,SE,134,3.0,11.0,46,0.00,,,0.00,598.0,meteohub,2013-01-21 17:48:00,
2013-01-21 12:54:00,49.3,28.2,29.98,SW,215,3.0,7.0,44,0.00,,,0.00,599.0,meteohub,2013-01-21 17:54:00,
2013-01-21 12:59:00,50.5,30.6,29.98,NNW,328,1.0,9.0,46,0.00,,,0.00,598.0,meteohub,2013-01-21 17:59:00,
2013-01-21 13:04:00,49.6,28.6,29.98,East,88,1.0,9.0,44,0.00,,,0.00,596.0,meteohub,2013-01-21 18:04:00,
2013-01-21 13:09:00,50.2,29.7,29.97,NE,53,1.0,9.0,45,0.00,,,0.00,591.0,meteohub,2013-01-21 18:09:00,
2013-01-21 13:14:00,51.1,29.8,29.97,East,86,1.0,7.0,44,0.00,,,0.00,585.0,meteohub,2013-01-21 18:14:00,
2013-01-21 13:19:00,51.1,29.8,29.97,WSW,244,2.0,6.0,44,0.00,,,0.00,587.0,meteohub,2013-01-21 18:19:00,
2013-01-21 13:24:00,50.7,29.7,29.97,NNW,336,2.0,4.0,44,0.00,,,0.00,582.0,meteohub,2013-01-21 18:24:00,
2013-01-21 13:29:00,50.7,30.7,29.97,WNW,288,1.0,6.0,46,0.00,,,0.00,582.0,meteohub,2013-01-21 18:29:00,
2013-01-21 13:34:00,51.6,29.8,29.97,WSW,253,2.0,7.0,43,0.00,,,0.00,575.0,meteohub,2013-01-21 18:34:00,
2013-01-21 13:39:00,51.4,27.9,29.97,ESE,123,4.0,9.0,40,0.00,,,0.00,571.0,meteohub,2013-01-21 18:39:00,
2013-01-21 13:44:00,50.9,27.5,29.97,West,274,4.0,13.0,40,0.00,,,0.00,570.0,meteohub,2013-01-21 18:44:00,
2013-01-21 13:49:00,50.4,28.8,29.96,WNW,290,2.0,13.0,43,0.00,,,0.00,566.0,meteohub,2013-01-21 18:49:00,
2013-01-21 13:54:00,51.4,29.1,29.96,SSE,156,7.0,13.0,42,0.00,,,0.00,561.0,meteohub,2013-01-21 18:54:00,
2013-01-21 13:59:00,50.7,29.1,29.96,SSW,209,7.0,10.0,43,0.00,,,0.00,552.0,meteohub,2013-01-21 18:59:00,
2013-01-21 14:04:00,50.7,29.1,29.96,South,187,3.0,10.0,43,0.00,,,0.00,547.0,meteohub,2013-01-21 19:04:00,
2013-01-21 14:09:00,51.4,28.6,29.96,West,274,1.0,9.0,41,0.00,,,0.00,541.0,meteohub,2013-01-21 19:09:00,
2013-01-21 14:14:00,51.3,28.4,29.96,SW,218,2.0,9.0,41,0.00,,,0.00,536.0,meteohub,2013-01-21 19:14:00,
2013-01-21 14:20:00,51.3,27.7,29.96,WSW,254,2.0,9.0,40,0.00,,,0.00,527.0,meteohub,2013-01-21 19:20:00,
2013-01-21 14:25:00,51.4,28.6,29.96,SW,231,0.0,9.0,41,0.00,,,0.00,526.0,meteohub,2013-01-21 19:25:00,
2013-01-21 14:30:00,50.5,26.4,29.96,East,86,2.0,7.0,39,0.00,,,0.00,515.0,meteohub,2013-01-21 19:30:00,
2013-01-21 14:35:00,50.9,27.5,29.96,SW,232,2.0,7.0,40,0.00,,,0.00,508.0,meteohub,2013-01-21 19:35:00,
2013-01-21 14:40:00,51.3,27.1,29.96,WNW,296,6.0,9.0,39,0.00,,,0.00,501.0,meteohub,2013-01-21 19:40:00,
2013-01-21 14:45:00,51.4,26.1,29.96,WNW,292,3.0,11.0,37,0.00,,,0.00,494.0,meteohub,2013-01-21 19:45:00,
2013-01-21 14:50:00,50.4,24.4,29.96,ESE,112,3.0,11.0,36,0.00,,,0.00,485.0,meteohub,2013-01-21 19:50:00,
2013-01-21 14:55:00,50.7,25.3,29.96,SW,224,2.0,9.0,37,0.00,,,0.00,475.0,meteohub,2013-01-21 19:55:00,
2013-01-21 15:01:00,49.8,25.2,29.96,SW,228,3.0,7.0,38,0.00,,,0.00,462.0,meteohub,2013-01-21 20:01:00,
2013-01-21 15:06:00,50.4,28.2,29.96,NNE,13,3.0,8.0,42,0.00,,,0.00,454.0,meteohub,2013-01-21 20:06:00,
2013-01-21 15:11:00,50.2,25.0,29.96,SW,225,4.0,8.0,37,0.00,,,0.00,441.0,meteohub,2013-01-21 20:11:00,
2013-01-21 15:16:00,49.5,26.1,29.96,SW,222,2.0,8.0,40,0.00,,,0.00,429.0,meteohub,2013-01-21 20:16:00,
2013-01-21 15:21:00,49.5,26.1,29.96,NW,304,2.0,8.0,40,0.00,,,0.00,346.0,meteohub,2013-01-21 20:21:00,
2013-01-21 15:26:00,48.6,25.3,29.96,SSW,198,1.0,8.0,40,0.00,,,0.00,156.0,meteohub,2013-01-21 20:26:00,
2013-01-21 15:31:00,48.4,24.6,29.96,NNW,336,3.0,8.0,39,0.00,,,0.00,232.0,meteohub,2013-01-21 20:31:00,
2013-01-21 15:36:00,48.6,24.8,29.96,SSE,149,2.0,13.0,39,0.00,,,0.00,197.0,meteohub,2013-01-21 20:36:00,
2013-01-21 15:41:00,47.8,24.1,29.96,South,187,1.0,13.0,39,0.00,,,0.00,95.0,meteohub,2013-01-21 20:41:00,
2013-01-21 15:46:00,47.3,23.5,29.96,South,184,3.0,13.0,39,0.00,,,0.00,134.0,meteohub,2013-01-21 20:46:00,
2013-01-21 15:51:00,47.5,23.2,29.96,NE,54,1.0,9.0,38,0.00,,,0.00,193.0,meteohub,2013-01-21 20:51:00,
2013-01-21 15:56:00,46.8,23.2,29.96,WNW,293,5.0,9.0,39,0.00,,,0.00,70.0,meteohub,2013-01-21 20:56:00,
2013-01-21 16:01:00,46.2,21.9,29.96,West,275,1.0,9.0,38,0.00,,,0.00,62.0,meteohub,2013-01-21 21:01:00,
2013-01-21 16:06:00,46.0,22.5,29.96,WNW,296,5.0,9.0,39,0.00,,,0.00,49.0,meteohub,2013-01-21 21:06:00,
2013-01-21 16:11:00,45.5,21.4,29.96,NE,38,2.0,8.0,38,0.00,,,0.00,63.0,meteohub,2013-01-21 21:11:00,
2013-01-21 16:16:00,45.7,22.8,29.96,WSW,239,1.0,8.0,40,0.00,,,0.00,139.0,meteohub,2013-01-21 21:16:00,
2013-01-21 16:21:00,45.5,21.4,29.97,SSE,162,3.0,11.0,38,0.00,,,0.00,47.0,meteohub,2013-01-21 21:21:00,
2013-01-21 16:26:00,45.5,21.4,29.97,South,172,3.0,11.0,38,0.00,,,0.00,95.0,meteohub,2013-01-21 21:26:00,
2013-01-21 16:32:00,45.7,20.8,29.96,North,351,2.0,8.0,37,0.00,,,0.00,146.0,meteohub,2013-01-21 21:32:00,
2013-01-21 16:37:00,45.1,18.5,29.97,WSW,257,1.0,8.0,34,0.00,,,0.00,134.0,meteohub,2013-01-21 21:37:00,
2013-01-21 16:42:00,44.8,20.1,29.96,South,171,1.0,11.0,37,0.00,,,0.00,95.0,meteohub,2013-01-21 21:42:00,
2013-01-21 16:47:00,44.4,19.0,29.96,WNW,289,1.0,11.0,36,0.00,,,0.00,111.0,meteohub,2013-01-21 21:47:00,
2013-01-21 16:52:00,44.2,18.3,29.96,SSW,199,5.0,11.0,35,0.00,,,0.00,77.0,meteohub,2013-01-21 21:52:00,
2013-01-21 16:57:00,43.7,16.5,29.96,WSW,246,5.0,10.0,33,0.00,,,0.00,79.0,meteohub,2013-01-21 21:57:00,
2013-01-21 17:02:00,43.3,16.9,29.96,WNW,286,5.0,10.0,34,0.00,,,0.00,47.0,meteohub,2013-01-21 22:02:00,
2013-01-21 17:07:00,42.6,15.4,29.96,West,281,9.0,13.0,33,0.00,,,0.00,30.0,meteohub,2013-01-21 22:07:00,
2013-01-21 17:12:00,42.1,15.8,29.96,WNW,300,3.0,13.0,34,0.00,,,0.00,51.0,meteohub,2013-01-21 22:12:00,
2013-01-21 17:17:00,41.5,14.5,29.97,SW,234,2.0,13.0,33,0.00,,,0.00,33.0,meteohub,2013-01-21 22:17:00,
2013-01-21 17:22:00,41.0,15.4,29.97,NNW,346,6.0,11.0,35,0.00,,,0.00,23.0,meteohub,2013-01-21 22:22:00,
2013-01-21 17:27:00,40.5,14.9,29.97,SW,224,6.0,11.0,35,0.00,,,0.00,19.0,meteohub,2013-01-21 22:27:00,
2013-01-21 17:32:00,39.7,15.6,29.97,NW,315,2.0,11.0,37,0.00,,,0.00,14.0,meteohub,2013-01-21 22:32:00,
2013-01-21 17:37:00,39.2,15.8,29.98,NW,308,2.0,10.0,38,0.00,,,0.00,12.0,meteohub,2013-01-21 22:37:00,
2013-01-21 17:42:00,38.7,15.3,29.98,NW,309,4.0,10.0,38,0.00,,,0.00,5.0,meteohub,2013-01-21 22:42:00,
2013-01-21 17:47:00,38.3,15.4,29.98,NW,315,6.0,11.0,39,0.00,,,0.00,5.0,meteohub,2013-01-21 22:47:00,
2013-01-21 17:52:00,37.9,15.3,29.98,West,269,4.0,11.0,39,0.00,,,0.00,0.0,meteohub,2013-01-21 22:52:00,
2013-01-21 17:57:00,37.8,14.4,29.98,East,87,6.0,11.0,38,0.00,,,0.00,0.0,meteohub,2013-01-21 22:57:00,
2013-01-21 18:02:00,37.2,15.1,29.98,NE,37,4.0,10.0,40,0.00,,,0.00,0.0,meteohub,2013-01-21 23:02:00,
2013-01-21 18:07:00,37.0,14.9,29.98,NNE,28,3.0,10.0,40,0.00,,,0.00,0.0,meteohub,2013-01-21 23:07:00,
2013-01-21 18:12:00,37.0,14.9,29.98,NE,45,2.0,10.0,40,0.00,,,0.00,0.0,meteohub,2013-01-21 23:12:00,
2013-01-21 18:17:00,36.9,14.2,29.98,East,81,2.0,10.0,39,0.00,,,0.00,0.0,meteohub,2013-01-21 23:17:00,
2013-01-21 18:22:00,36.9,15.4,29.98,North,0,2.0,10.0,41,0.00,,,0.00,0.0,meteohub,2013-01-21 23:22:00,
2013-01-21 18:27:00,36.5,14.5,29.98,East,96,1.0,10.0,40,0.00,,,0.00,0.0,meteohub,2013-01-21 23:27:00,
2013-01-21 18:32:00,36.5,14.5,29.98,NW,319,3.0,9.0,40,0.00,,,0.00,0.0,meteohub,2013-01-21 23:32:00,
2013-01-21 18:37:00,36.1,14.7,29.97,SSW,213,2.0,8.0,41,0.00,,,0.00,0.0,meteohub,2013-01-21 23:37:00,
2013-01-21 18:42:00,36.0,15.1,29.98,West,259,6.0,8.0,42,0.00,,,0.00,0.0,meteohub,2013-01-21 23:42:00,
2013-01-21 18:47:00,36.1,14.2,29.98,ENE,57,2.0,13.0,40,0.00,,,0.00,0.0,meteohub,2013-01-21 23:47:00,
2013-01-21 18:52:00,36.0,14.5,29.98,SSW,198,2.0,13.0,41,0.00,,,0.00,0.0,meteohub,2013-01-21 23:52:00,
2013-01-21 18:57:00,35.6,15.3,29.98,SW,236,1.0,13.0,43,0.00,,,0.00,0.0,meteohub,2013-01-21 23:57:00,
2013-01-21 19:02:00,35.4,14.5,29.99,WSW,244,2.0,7.0,42,0.00,,,0.00,0.0,meteohub,2013-01-22 00:02:00,
2013-01-21 19:07:00,35.4,15.1,29.98,NNW,335,3.0,7.0,43,0.00,,,0.00,0.0,meteohub,2013-01-22 00:07:00,
2013-01-21 19:12:00,35.4,15.1,29.98,ESE,118,3.0,13.0,43,0.00,,,0.00,0.0,meteohub,2013-01-22 00:12:00,
2013-01-21 19:17:00,35.2,14.9,29.98,NNW,329,1.0,13.0,43,0.00,,,0.00,0.0,meteohub,2013-01-22 00:17:00,
2013-01-21 19:22:00,35.2,15.4,29.99,NNE,26,2.0,13.0,44,0.00,,,0.00,0.0,meteohub,2013-01-22 00:22:00,
2013-01-21 19:27:00,34.9,15.3,29.99,South,179,1.0,10.0,44,0.00,,,0.00,0.0,meteohub,2013-01-22 00:27:00,
2013-01-21 19:32:00,34.7,15.4,29.98,SE,126,1.0,13.0,45,0.00,,,0.00,0.0,meteohub,2013-01-22 00:32:00,
2013-01-21 19:37:00,34.7,15.4,29.99,West,261,3.0,13.0,45,0.00,,,0.00,0.0,meteohub,2013-01-22 00:37:00,
2013-01-21 19:42:00,34.3,15.3,29.98,ENE,57,2.0,13.0,45,0.00,,,0.00,0.0,meteohub,2013-01-22 00:42:00,
2013-01-21 19:47:00,34.2,15.1,29.99,NNW,346,3.0,13.0,45,0.00,,,0.00,0.0,meteohub,2013-01-22 00:47:00,
2013-01-21 19:52:00,34.2,15.1,29.98,NE,36,1.0,8.0,45,0.00,,,0.00,0.0,meteohub,2013-01-22 00:52:00,
2013-01-21 19:57:00,34.0,14.9,29.98,WNW,298,2.0,8.0,45,0.00,,,0.00,0.0,meteohub,2013-01-22 00:57:00,
2013-01-21 20:02:00,33.6,15.1,29.98,East,80,3.0,10.0,46,0.00,,,0.00,0.0,meteohub,2013-01-22 01:02:00,
2013-01-21 20:07:00,33.4,14.9,29.98,SSE,164,1.0,10.0,46,0.00,,,0.00,0.0,meteohub,2013-01-22 01:07:00,
2013-01-21 20:12:00,33.4,15.4,29.98,NNE,20,1.0,7.0,47,0.00,,,0.00,0.0,meteohub,2013-01-22 01:12:00,
2013-01-21 20:17:00,33.3,15.6,29.98,NW,305,2.0,6.0,48,0.00,,,0.00,0.0,meteohub,2013-01-22 01:17:00,
2013-01-21 20:22:00,33.3,14.7,29.98,South,180,3.0,9.0,46,0.00,,,0.00,0.0,meteohub,2013-01-22 01:22:00,
2013-01-21 20:27:00,33.3,14.7,29.98,South,180,2.0,9.0,46,0.00,,,0.00,0.0,meteohub,2013-01-22 01:27:00,
2013-01-21 20:32:00,33.1,15.4,29.98,NW,314,1.0,9.0,48,0.00,,,0.00,0.0,meteohub,2013-01-22 01:32:00,
2013-01-21 20:37:00,32.7,15.3,29.98,SW,233,3.0,6.0,48,0.00,,,0.00,0.0,meteohub,2013-01-22 01:37:00,
2013-01-21 20:42:00,32.7,15.3,29.98,North,355,1.0,7.0,48,0.00,,,0.00,0.0,meteohub,2013-01-22 01:42:00,
2013-01-21 20:47:00,32.7,15.3,29.98,NNE,19,3.0,8.0,48,0.00,,,0.00,0.0,meteohub,2013-01-22 01:47:00,
2013-01-21 20:52:00,32.5,15.4,29.98,South,178,3.0,8.0,49,0.00,,,0.00,0.0,meteohub,2013-01-22 01:52:00,
2013-01-21 20:57:00,32.5,15.4,29.98,East,98,1.0,8.0,49,0.00,,,0.00,0.0,meteohub,2013-01-22 01:57:00,
2013-01-21 21:02:00,32.5,15.1,29.98,WNW,288,0.0,8.0,48,0.00,,,0.00,0.0,meteohub,2013-01-22 02:02:00,
2013-01-21 21:07:00,32.5,15.4,29.99,WNW,301,1.0,10.0,49,0.00,,,0.00,0.0,meteohub,2013-01-22 02:07:00,
2013-01-21 21:12:00,32.4,15.3,29.99,WNW,296,1.0,10.0,49,0.00,,,0.00,0.0,meteohub,2013-01-22 02:12:00,
2013-01-21 21:17:00,32.2,15.6,29.99,NE,36,3.0,9.0,50,0.00,,,0.00,0.0,meteohub,2013-01-22 02:17:00,
2013-01-21 21:22:00,32.0,15.1,29.99,SSE,162,2.0,9.0,49,0.00,,,0.00,0.0,meteohub,2013-01-22 02:22:00,
2013-01-21 21:27:00,31.8,15.3,29.99,SE,141,2.0,9.0,50,0.00,,,0.00,0.0,meteohub,2013-01-22 02:27:00,
2013-01-21 21:32:00,31.6,15.1,29.99,WNW,287,0.0,9.0,50,0.00,,,0.00,0.0,meteohub,2013-01-22 02:32:00,
2013-01-21 21:37:00,31.5,15.4,29.99,East,98,2.0,9.0,51,0.00,,,0.00,0.0,meteohub,2013-01-22 02:37:00,
2013-01-21 21:42:00,31.5,15.4,29.99,SSE,151,2.0,9.0,51,0.00,,,0.00,0.0,meteohub,2013-01-22 02:42:00,
2013-01-21 21:47:00,31.3,15.6,29.98,ESE,116,1.0,7.0,52,0.00,,,0.00,0.0,meteohub,2013-01-22 02:47:00,
2013-01-21 21:52:00,31.5,14.9,29.98,SSW,196,4.0,7.0,50,0.00,,,0.00,0.0,meteohub,2013-01-22 02:52:00,
2013-01-21 21:57:00,31.3,15.3,29.98,NE,35,2.0,7.0,51,0.00,,,0.00,0.0,meteohub,2013-01-22 02:57:00,
2013-01-21 22:02:00,31.3,14.7,29.98,North,5,3.0,7.0,50,0.00,,,0.00,0.0,meteohub,2013-01-22 03:02:00,
2013-01-21 22:07:00,31.3,14.7,29.97,West,277,3.0,14.0,50,0.00,,,0.00,0.0,meteohub,2013-01-22 03:07:00,
2013-01-21 22:12:00,31.3,14.7,29.97,ESE,113,3.0,14.0,50,0.00,,,0.00,0.0,meteohub,2013-01-22 03:12:00,
2013-01-21 22:17:00,31.1,15.1,29.97,NNW,336,3.0,10.0,51,0.00,,,0.00,0.0,meteohub,2013-01-22 03:17:00,
2013-01-21 22:22:00,30.9,14.9,29.98,SSW,206,4.0,15.0,51,0.00,,,0.00,0.0,meteohub,2013-01-22 03:22:00,
2013-01-21 22:27:00,30.7,14.7,29.98,East,93,2.0,15.0,51,0.00,,,0.00,0.0,meteohub,2013-01-22 03:27:00,
2013-01-21 22:32:00,30.7,14.7,29.98,South,184,2.0,15.0,51,0.00,,,0.00,0.0,meteohub,2013-01-22 03:32:00,
2013-01-21 22:37:00,30.7,14.7,29.98,SSE,155,3.0,11.0,51,0.00,,,0.00,0.0,meteohub,2013-01-22 03:37:00,
2013-01-21 22:42:00,30.6,14.5,29.98,SW,217,2.0,11.0,51,0.00,,,0.00,0.0,meteohub,2013-01-22 03:42:00,
2013-01-21 22:47:00,30.4,14.4,29.97,West,272,3.0,8.0,51,0.00,,,0.00,0.0,meteohub,2013-01-22 03:47:00,
2013-01-21 22:52:00,30.6,14.5,29.98,SE,146,7.0,9.0,51,0.00,,,0.00,0.0,meteohub,2013-01-22 03:52:00,
2013-01-21 22:57:00,30.4,14.4,29.97,NNW,333,7.0,10.0,51,0.00,,,0.00,0.0,meteohub,2013-01-22 03:57:00,
2013-01-21 23:02:00,30.4,14.0,29.97,West,271,1.0,14.0,50,0.00,,,0.00,0.0,meteohub,2013-01-22 04:02:00,
2013-01-21 23:07:00,30.4,14.4,29.97,SSW,205,6.0,18.0,51,0.00,,,0.00,0.0,meteohub,2013-01-22 04:07:00,
2013-01-21 23:12:00,30.0,14.0,29.97,West,274,1.0,18.0,51,0.00,,,0.00,0.0,meteohub,2013-01-22 04:12:00,
2013-01-21 23:17:00,29.8,14.4,29.97,NW,315,3.0,18.0,52,0.00,,,0.00,0.0,meteohub,2013-01-22 04:17:00,
2013-01-21 23:22:00,29.7,14.2,29.98,SSW,210,4.0,14.0,52,0.00,,,0.00,0.0,meteohub,2013-01-22 04:22:00,
2013-01-21 23:27:00,29.7,14.2,29.97,ENE,69,3.0,14.0,52,0.00,,,0.00,0.0,meteohub,2013-01-22 04:27:00,
2013-01-21 23:32:00,29.5,14.5,29.97,WNW,298,6.0,14.0,53,0.00,,,0.00,0.0,meteohub,2013-01-22 04:32:00,
2013-01-21 23:37:00,29.5,14.5,29.97,SSW,196,4.0,11.0,53,0.00,,,0.00,0.0,meteohub,2013-01-22 04:37:00,
2013-01-21 23:42:00,29.3,14.4,29.96,NE,49,2.0,11.0,53,0.00,,,0.00,0.0,meteohub,2013-01-22 04:42:00,
2013-01-21 23:47:00,29.1,14.2,29.96,ESE,115,2.0,14.0,53,0.00,,,0.00,0.0,meteohub,2013-01-22 04:47:00,
2013-01-21 23:52:00,28.9,14.0,29.96,North,0,4.0,14.0,53,0.00,,,0.00,0.0,meteohub,2013-01-22 04:52:00,
2013-01-21 23:57:00,28.9,14.0,29.96,NW,316,8.0,14.0,53,0.00,,,0.00,0.0,meteohub,2013-01-22 04:57:00,